createdAt,value
2018-05-26T00:00:42.338Z,86.95
2018-05-26T00:02:35.407Z,86.85
2018-05-26T00:03:35.374Z,87.62
2018-05-26T00:05:28.296Z,86.95
2018-05-26T00:06:28.205Z,87.43
2018-05-26T00:08:21.338Z,87.24
2018-05-26T00:09:21.344Z,87.53
2018-05-26T00:11:14.443Z,87.24
2018-05-26T00:12:14.383Z,86.95
2018-05-26T00:14:07.378Z,86.95
2018-05-26T00:15:07.319Z,87.24
2018-05-26T00:17:00.292Z,87.34
2018-05-26T00:18:00.253Z,87.05
2018-05-26T00:19:53.117Z,87.53
2018-05-26T00:20:53.063Z,87.29
2018-05-26T00:22:46.042Z,87.96
2018-05-26T00:23:46.005Z,87.49
2018-05-26T00:25:39.085Z,87.49
2018-05-26T00:26:38.983Z,87.29
2018-05-26T00:28:32.218Z,87.29
2018-05-26T00:29:32.081Z,87.87
2018-05-26T00:31:25.075Z,87.68
2018-05-26T00:32:25.035Z,87.58
2018-05-26T00:34:18.028Z,88.35
2018-05-26T00:35:17.975Z,88.02
2018-05-26T00:37:10.810Z,88.69
2018-05-26T00:38:10.811Z,89.07
2018-05-26T00:40:03.778Z,89.26
2018-05-26T00:41:03.733Z,89.07
2018-05-26T00:42:56.711Z,89.55
2018-05-26T00:43:56.678Z,89.46
2018-05-26T00:45:49.768Z,89.36
2018-05-26T00:46:49.737Z,89.65
2018-05-26T00:48:42.723Z,90.32
2018-05-26T00:49:42.669Z,90.61
2018-05-26T00:51:35.660Z,90.08
2018-05-26T00:52:35.639Z,89.84
2018-05-26T00:54:28.749Z,90.22
2018-05-26T00:55:28.714Z,90.13
2018-05-26T00:57:21.726Z,90.70
2018-05-26T00:58:21.668Z,90.85
2018-05-26T01:00:14.670Z,90.47
2018-05-26T01:01:14.620Z,90.80
2018-05-26T01:03:07.454Z,90.75
2018-05-26T01:04:07.440Z,90.56
2018-05-26T01:06:00.465Z,91.05
2018-05-26T01:07:00.384Z,90.85
2018-05-26T01:08:53.364Z,91.24
2018-05-26T01:09:53.369Z,91.05
2018-05-26T01:11:46.531Z,91.05
2018-05-26T01:12:46.438Z,91.05
2018-05-26T01:14:39.585Z,91.42
2018-05-26T01:15:39.560Z,91.62
2018-05-26T01:17:32.734Z,91.33
2018-05-26T01:18:32.672Z,91.33
2018-05-26T01:20:25.673Z,91.42
2018-05-26T01:21:25.633Z,91.33
2018-05-26T01:23:18.919Z,91.81
2018-05-26T01:24:18.862Z,91.81
2018-05-26T01:26:11.673Z,92.00
2018-05-26T01:27:11.629Z,91.81
2018-05-26T01:29:04.644Z,92.10
2018-05-26T01:30:04.630Z,91.72
2018-05-26T01:31:57.855Z,92.00
2018-05-26T01:32:57.729Z,91.62
2018-05-26T01:34:50.691Z,91.81
2018-05-26T01:35:50.655Z,91.72
2018-05-26T01:37:45.601Z,91.81
2018-05-26T01:38:43.591Z,91.91
2018-05-26T01:40:36.405Z,91.91
2018-05-26T01:41:36.391Z,91.72
2018-05-26T01:43:29.360Z,92.39
2018-05-26T01:44:29.301Z,92.10
2018-05-26T01:46:22.115Z,92.10
2018-05-26T01:47:22.107Z,92.29
2018-05-26T01:49:15.075Z,92.68
2018-05-26T01:50:15.042Z,92.77
2018-05-26T01:52:07.995Z,92.77
2018-05-26T01:53:07.945Z,92.58
2018-05-26T01:55:00.942Z,92.77
2018-05-26T01:56:00.893Z,92.96
2018-05-26T01:57:53.924Z,92.48
2018-05-26T01:58:53.870Z,92.96
2018-05-26T02:00:47.302Z,93.06
2018-05-26T02:01:47.022Z,92.86
2018-05-26T02:03:40.037Z,93.40
2018-05-26T02:04:40.015Z,93.11
2018-05-26T02:06:32.789Z,92.91
2018-05-26T02:07:32.757Z,93.11
2018-05-26T02:09:25.592Z,93.40
2018-05-26T02:10:25.534Z,93.11
2018-05-26T02:12:18.627Z,93.21
2018-05-26T02:13:18.580Z,93.40
2018-05-26T02:15:11.560Z,93.78
2018-05-26T02:16:11.528Z,93.68
2018-05-26T02:18:04.749Z,94.17
2018-05-26T02:19:04.705Z,93.68
2018-05-26T02:20:57.675Z,93.88
2018-05-26T02:21:57.682Z,94.07
2018-05-26T02:23:50.645Z,94.17
2018-05-26T02:24:50.587Z,93.78
2018-05-26T02:26:43.595Z,93.97
2018-05-26T02:27:43.551Z,93.97
2018-05-26T02:29:36.653Z,94.74
2018-05-26T02:30:36.538Z,94.74
2018-05-26T02:32:29.686Z,94.64
2018-05-26T02:33:29.669Z,94.07
2018-05-26T02:35:22.475Z,94.45
2018-05-26T02:36:22.426Z,94.07
2018-05-26T02:38:15.436Z,94.45
2018-05-26T02:39:15.372Z,93.97
2018-05-26T02:41:08.183Z,94.45
2018-05-26T02:42:08.158Z,94.26
2018-05-26T02:44:01.328Z,94.26
2018-05-26T02:45:01.262Z,95.03
2018-05-26T02:46:54.237Z,95.03
2018-05-26T02:47:54.201Z,95.03
2018-05-26T02:49:47.552Z,94.84
2018-05-26T02:50:47.354Z,94.84
2018-05-26T02:52:40.342Z,94.64
2018-05-26T02:53:40.302Z,94.59
2018-05-26T02:55:33.291Z,94.98
2018-05-26T02:56:33.247Z,95.07
2018-05-26T02:58:26.183Z,94.59
2018-05-26T02:59:26.057Z,94.79
2018-05-26T03:01:18.929Z,94.98
2018-05-26T03:02:18.817Z,94.40
2018-05-26T03:04:11.818Z,93.93
2018-05-26T03:05:11.767Z,94.21
2018-05-26T03:07:04.775Z,94.59
2018-05-26T03:08:04.739Z,94.79
2018-05-26T03:09:57.582Z,94.69
2018-05-26T03:10:57.518Z,94.40
2018-05-26T03:12:50.548Z,95.07
2018-05-26T03:13:50.507Z,95.07
2018-05-26T03:15:43.330Z,95.07
2018-05-26T03:16:43.283Z,95.75
2018-05-26T03:18:36.268Z,95.07
2018-05-26T03:19:36.233Z,95.56
2018-05-26T03:21:29.324Z,95.56
2018-05-26T03:22:29.079Z,96.13
2018-05-26T03:24:22.103Z,96.08
2018-05-26T03:25:22.062Z,95.94
2018-05-26T03:27:15.103Z,95.94
2018-05-26T03:28:15.034Z,95.89
2018-05-26T03:30:08.219Z,96.03
2018-05-26T03:31:08.145Z,96.99
2018-05-26T03:33:01.128Z,96.27
2018-05-26T03:34:01.078Z,96.47
2018-05-26T03:35:54.089Z,96.18
2018-05-26T03:36:54.044Z,96.27
2018-05-26T03:38:46.865Z,96.94
2018-05-26T03:39:46.840Z,96.37
2018-05-26T03:41:39.824Z,96.37
2018-05-26T03:42:39.775Z,96.08
2018-05-26T03:44:32.759Z,95.79
2018-05-26T03:45:32.784Z,96.08
2018-05-26T03:47:25.892Z,96.08
2018-05-26T03:48:25.815Z,96.08
2018-05-26T03:50:18.788Z,95.60
2018-05-26T03:51:18.759Z,95.70
2018-05-26T03:53:11.730Z,96.27
2018-05-26T03:54:11.682Z,95.98
2018-05-26T03:56:04.537Z,96.66
2018-05-26T03:57:04.479Z,96.56
2018-05-26T03:58:57.429Z,96.84
2018-05-26T03:59:57.405Z,97.42
2018-05-26T04:01:50.392Z,97.14
2018-05-26T04:02:50.358Z,97.04
2018-05-26T04:04:43.177Z,97.04
2018-05-26T04:05:43.179Z,96.84
2018-05-26T04:07:35.977Z,97.04
2018-05-26T04:08:35.913Z,97.23
2018-05-26T04:10:28.908Z,97.52
2018-05-26T04:11:28.868Z,97.23
2018-05-26T04:13:21.883Z,97.52
2018-05-26T04:14:21.833Z,97.61
2018-05-26T04:16:15.080Z,97.42
2018-05-26T04:17:14.943Z,97.52
2018-05-26T04:19:07.973Z,97.52
2018-05-26T04:20:07.926Z,97.61
2018-05-26T04:22:00.902Z,97.04
2018-05-26T04:23:00.865Z,97.04
2018-05-26T04:24:53.723Z,96.94
2018-05-26T04:25:53.674Z,96.84
2018-05-26T04:27:46.648Z,96.66
2018-05-26T04:28:46.606Z,96.66
2018-05-26T04:30:39.603Z,96.37
2018-05-26T04:31:39.625Z,96.18
2018-05-26T04:33:32.794Z,96.27
2018-05-26T04:34:32.738Z,96.27
2018-05-26T04:36:25.575Z,96.08
2018-05-26T04:37:25.526Z,96.08
2018-05-26T04:39:18.510Z,96.47
2018-05-26T04:40:18.469Z,96.18
2018-05-26T04:42:11.714Z,96.84
2018-05-26T04:43:11.603Z,96.75
2018-05-26T04:45:04.613Z,96.56
2018-05-26T04:46:04.579Z,96.27
2018-05-26T04:47:57.420Z,96.56
2018-05-26T04:48:57.390Z,96.84
2018-05-26T04:50:50.529Z,96.84
2018-05-26T04:51:50.485Z,96.84
2018-05-26T04:53:43.460Z,97.04
2018-05-26T04:54:43.411Z,96.84
2018-05-26T04:56:36.396Z,97.04
2018-05-26T04:57:36.404Z,96.84
2018-05-26T04:59:29.336Z,97.28
2018-05-26T05:00:29.177Z,96.80
2018-05-26T05:02:22.158Z,97.09
2018-05-26T05:03:22.125Z,97.18
2018-05-26T05:05:15.137Z,97.18
2018-05-26T05:06:15.081Z,96.99
2018-05-26T05:08:08.221Z,96.80
2018-05-26T05:09:08.174Z,96.70
2018-05-26T05:11:03.102Z,96.80
2018-05-26T05:12:01.104Z,96.70
2018-05-26T05:13:54.497Z,96.70
2018-05-26T05:14:54.304Z,96.85
2018-05-26T05:16:47.286Z,96.75
2018-05-26T05:17:47.256Z,96.37
2018-05-26T05:19:40.243Z,96.75
2018-05-26T05:20:40.195Z,96.66
2018-05-26T05:22:33.030Z,96.37
2018-05-26T05:23:33.001Z,96.27
2018-05-26T05:25:25.971Z,96.56
2018-05-26T05:26:25.789Z,96.66
2018-05-26T05:28:18.593Z,96.56
2018-05-26T05:29:18.571Z,96.75
2018-05-26T05:31:11.403Z,96.75
2018-05-26T05:32:11.366Z,96.75
2018-05-26T05:34:04.340Z,96.47
2018-05-26T05:35:04.287Z,96.75
2018-05-26T05:36:57.478Z,96.94
2018-05-26T05:37:57.423Z,96.85
2018-05-26T05:39:50.426Z,96.99
2018-05-26T05:40:50.462Z,96.80
2018-05-26T05:42:43.406Z,96.80
2018-05-26T05:43:43.362Z,96.61
2018-05-26T05:45:36.382Z,96.99
2018-05-26T05:46:36.329Z,96.42
2018-05-26T05:48:29.342Z,96.99
2018-05-26T05:49:29.337Z,96.13
2018-05-26T05:51:22.534Z,96.13
2018-05-26T05:52:22.426Z,96.37
2018-05-26T05:54:15.421Z,97.04
2018-05-26T05:55:15.376Z,96.56
2018-05-26T05:57:08.426Z,96.18
2018-05-26T05:58:08.364Z,95.50
2018-05-26T06:00:03.332Z,95.89
2018-05-26T06:01:01.357Z,95.50
2018-05-26T06:02:54.343Z,95.31
2018-05-26T06:03:54.283Z,95.31
2018-05-26T06:05:47.388Z,95.75
2018-05-26T06:06:47.339Z,95.75
2018-05-26T06:08:40.378Z,95.45
2018-05-26T06:09:40.298Z,95.36
2018-05-26T06:11:33.134Z,95.36
2018-05-26T06:12:33.079Z,95.26
2018-05-26T06:14:25.899Z,95.31
2018-05-26T06:15:25.927Z,95.31
2018-05-26T06:17:19.083Z,94.54
2018-05-26T06:18:18.973Z,95.21
2018-05-26T06:20:11.963Z,95.31
2018-05-26T06:21:11.940Z,94.73
2018-05-26T06:23:04.928Z,95.12
2018-05-26T06:24:04.901Z,93.96
2018-05-26T06:25:57.742Z,93.91
2018-05-26T06:26:57.704Z,93.91
2018-05-26T06:28:50.702Z,93.44
2018-05-26T06:29:50.658Z,93.91
2018-05-26T06:31:43.696Z,93.53
2018-05-26T06:32:43.629Z,93.24
2018-05-26T06:34:36.918Z,92.91
2018-05-26T06:35:36.880Z,92.81
2018-05-26T06:37:29.884Z,92.13
2018-05-26T06:38:29.834Z,93.10
2018-05-26T06:40:22.988Z,91.17
2018-05-26T06:41:22.959Z,90.69
2018-05-26T06:43:15.939Z,90.59
2018-05-26T06:44:15.896Z,91.60
2018-05-26T06:46:08.883Z,90.26
2018-05-26T06:47:08.847Z,89.01
2018-05-26T06:49:01.915Z,89.68
2018-05-26T06:50:01.856Z,90.06
2018-05-26T06:51:54.844Z,88.43
2018-05-26T06:52:54.805Z,88.04
2018-05-26T06:54:48.065Z,89.24
2018-05-26T06:55:47.914Z,88.53
2018-05-26T06:57:42.880Z,86.93
2018-05-26T06:58:40.875Z,87.41
2018-05-26T07:00:33.837Z,87.12
2018-05-26T07:01:33.810Z,87.51
2018-05-26T07:03:26.964Z,87.51
2018-05-26T07:04:26.914Z,87.55
2018-05-26T07:06:19.739Z,86.78
2018-05-26T07:07:19.714Z,86.49
2018-05-26T07:09:12.575Z,85.82
2018-05-26T07:10:12.493Z,86.01
2018-05-26T07:12:05.615Z,86.01
2018-05-26T07:13:05.582Z,85.14
2018-05-26T07:14:58.570Z,84.38
2018-05-26T07:15:58.520Z,84.28
2018-05-26T07:17:51.519Z,84.12
2018-05-26T07:18:51.470Z,84.32
2018-05-26T07:20:44.718Z,84.12
2018-05-26T07:21:44.606Z,84.32
2018-05-26T07:23:37.455Z,83.55
2018-05-26T07:24:37.453Z,82.59
2018-05-26T07:26:30.219Z,82.59
2018-05-26T07:27:30.187Z,82.87
2018-05-26T07:29:24.719Z,81.76
2018-05-26T07:30:23.016Z,82.43
2018-05-26T07:32:15.807Z,81.95
2018-05-26T07:33:15.767Z,82.14
2018-05-26T07:35:08.799Z,82.34
2018-05-26T07:36:08.746Z,81.18
2018-05-26T07:38:01.764Z,82.05
2018-05-26T07:39:01.700Z,80.93
2018-05-26T07:40:55.016Z,79.93
2018-05-26T07:41:54.946Z,79.68
2018-05-26T07:43:47.966Z,79.68
2018-05-26T07:44:47.921Z,79.68
2018-05-26T07:46:40.880Z,79.00
2018-05-26T07:47:40.857Z,79.49
2018-05-26T07:49:33.881Z,78.91
2018-05-26T07:50:33.816Z,79.29
2018-05-26T07:52:26.825Z,78.46
2018-05-26T07:53:26.812Z,78.94
2018-05-26T07:55:19.633Z,78.66
2018-05-26T07:56:19.586Z,78.56
2018-05-26T07:58:12.707Z,77.98
2018-05-26T07:59:12.683Z,76.43
2018-05-26T08:01:05.690Z,77.11
2018-05-26T08:02:05.641Z,77.34
2018-05-26T08:03:58.627Z,75.70
2018-05-26T08:04:58.595Z,76.67
2018-05-26T08:06:51.503Z,75.51
2018-05-26T08:07:51.415Z,75.51
2018-05-26T08:09:44.415Z,75.31
2018-05-26T08:10:44.347Z,76.09
2018-05-26T08:12:37.336Z,76.09
2018-05-26T08:13:37.305Z,76.67
2018-05-26T08:15:30.266Z,75.70
2018-05-26T08:16:30.210Z,75.02
2018-05-26T08:18:23.181Z,75.45
2018-05-26T08:19:23.159Z,76.42
2018-05-26T08:21:18.238Z,74.29
2018-05-26T08:22:16.119Z,74.68
2018-05-26T08:24:09.289Z,74.77
2018-05-26T08:25:09.226Z,74.77
2018-05-26T08:27:02.223Z,73.26
2018-05-26T08:28:02.172Z,73.61
2018-05-26T08:29:55.167Z,73.74
2018-05-26T08:30:55.120Z,73.07
2018-05-26T08:32:47.952Z,72.39
2018-05-26T08:33:47.991Z,71.52
2018-05-26T08:35:40.919Z,71.14
2018-05-26T08:36:40.883Z,70.50
2018-05-26T08:38:33.867Z,72.42
2018-05-26T08:39:33.843Z,72.52
2018-05-26T08:41:28.002Z,73.59
2018-05-26T08:42:27.957Z,70.59
2018-05-26T08:44:20.844Z,71.17
2018-05-26T08:45:20.813Z,70.72
2018-05-26T08:47:13.668Z,70.10
2018-05-26T08:48:13.619Z,70.43
2018-05-26T08:50:06.818Z,70.62
2018-05-26T08:51:06.730Z,69.95
2018-05-26T08:52:59.728Z,71.88
2018-05-26T08:53:59.682Z,70.24
2018-05-26T08:55:52.562Z,69.08
2018-05-26T08:56:52.584Z,69.66
2018-05-26T08:58:45.736Z,68.24
2018-05-26T08:59:45.628Z,68.05
2018-05-26T09:01:38.644Z,68.43
2018-05-26T09:02:38.587Z,68.33
2018-05-26T09:04:31.590Z,64.95
2018-05-26T09:05:31.559Z,64.37
2018-05-26T09:07:24.582Z,66.60
2018-05-26T09:08:24.520Z,67.50
2018-05-26T09:10:17.491Z,66.43
2018-05-26T09:11:17.540Z,67.21
2018-05-26T09:13:10.312Z,68.08
2018-05-26T09:14:10.272Z,66.05
2018-05-26T09:16:03.099Z,65.66
2018-05-26T09:17:03.069Z,65.75
2018-05-26T09:18:56.080Z,65.17
2018-05-26T09:19:56.035Z,65.27
2018-05-26T09:21:49.078Z,64.92
2018-05-26T09:22:49.106Z,64.53
2018-05-26T09:24:42.125Z,65.59
2018-05-26T09:25:42.092Z,65.98
2018-05-26T09:27:35.094Z,64.14
2018-05-26T09:28:35.054Z,64.43
2018-05-26T09:30:28.090Z,63.59
2018-05-26T09:31:28.069Z,63.49
2018-05-26T09:33:20.904Z,62.72
2018-05-26T09:34:20.868Z,61.75
2018-05-26T09:36:13.889Z,63.20
2018-05-26T09:37:13.861Z,64.95
2018-05-26T09:39:06.904Z,63.40
2018-05-26T09:40:06.894Z,63.62
2018-05-26T09:41:59.696Z,61.10
2018-05-26T09:42:59.670Z,62.75
2018-05-26T09:44:52.708Z,60.23
2018-05-26T09:45:52.639Z,62.07
2018-05-26T09:47:45.621Z,60.74
2018-05-26T09:48:45.639Z,59.77
2018-05-26T09:50:38.755Z,60.16
2018-05-26T09:51:38.713Z,60.16
2018-05-26T09:53:31.711Z,60.97
2018-05-26T09:54:31.664Z,60.09
2018-05-26T09:56:24.505Z,58.34
2018-05-26T09:57:24.508Z,59.15
2018-05-26T09:59:17.700Z,56.65
2018-05-26T10:00:17.627Z,56.68
2018-05-26T10:02:10.620Z,54.62
2018-05-26T10:03:10.591Z,52.99
2018-05-26T10:05:03.915Z,50.78
2018-05-26T10:06:03.774Z,52.09
2018-05-26T10:07:56.760Z,48.34
2018-05-26T10:08:56.761Z,46.99
2018-05-26T10:10:49.771Z,44.28
2018-05-26T10:11:49.728Z,43.24
2018-05-26T10:13:42.707Z,41.99
2018-05-26T10:14:42.551Z,42.41
2018-05-26T10:16:37.505Z,40.29
2018-05-26T10:17:35.544Z,37.78
2018-05-26T10:19:28.568Z,37.48
2018-05-26T10:20:28.520Z,38.76
2018-05-26T10:22:21.658Z,37.52
2018-05-26T10:23:21.641Z,38.23
2018-05-26T10:25:14.670Z,36.26
2018-05-26T10:26:14.675Z,37.36
2018-05-26T10:28:07.829Z,35.03
2018-05-26T10:29:07.821Z,33.46
2018-05-26T10:31:00.821Z,33.79
2018-05-26T10:32:00.852Z,33.69
2018-05-26T10:33:53.696Z,31.14
2018-05-26T10:34:53.682Z,31.03
2018-05-26T10:36:46.701Z,32.32
2018-05-26T10:37:46.525Z,32.14
2018-05-26T10:39:39.574Z,31.26
2018-05-26T10:40:39.517Z,30.45
2018-05-26T10:42:32.362Z,31.17
2018-05-26T10:43:32.391Z,29.99
2018-05-26T10:45:26.822Z,28.28
2018-05-26T10:46:25.191Z,29.44
2018-05-26T10:48:18.023Z,30.28
2018-05-26T10:49:18.001Z,33.26
2018-05-26T10:51:11.051Z,30.02
2018-05-26T10:52:11.011Z,30.15
2018-05-26T10:54:03.848Z,31.06
2018-05-26T10:55:03.862Z,28.85
2018-05-26T10:56:57.044Z,31.27
2018-05-26T10:57:56.993Z,28.92
2018-05-26T10:59:50.426Z,29.00
2018-05-26T11:00:50.002Z,28.51
2018-05-26T11:02:43.293Z,29.43
2018-05-26T11:03:43.266Z,27.81
2018-05-26T11:05:36.142Z,30.17
2018-05-26T11:06:36.103Z,27.52
2018-05-26T11:08:29.124Z,29.97
2018-05-26T11:09:29.099Z,29.71
2018-05-26T11:11:22.183Z,30.93
2018-05-26T11:12:22.159Z,29.86
2018-05-26T11:14:15.177Z,28.89
2018-05-26T11:15:15.187Z,27.62
2018-05-26T11:17:13.618Z,28.99
2018-05-26T11:18:08.327Z,28.11
2018-05-26T11:20:01.327Z,28.59
2018-05-26T11:21:01.383Z,28.50
2018-05-26T11:22:54.658Z,28.13
2018-05-26T11:23:54.594Z,26.06
2018-05-26T11:25:47.494Z,27.25
2018-05-26T11:26:47.463Z,28.05
2018-05-26T11:28:40.477Z,26.92
2018-05-26T11:29:40.470Z,27.08
2018-05-26T11:31:33.497Z,28.88
2018-05-26T11:32:33.462Z,26.90
2018-05-26T11:34:26.471Z,28.79
2018-05-26T11:35:26.478Z,28.69
2018-05-26T11:37:19.769Z,27.24
2018-05-26T11:38:19.613Z,27.83
2018-05-26T11:40:12.628Z,27.96
2018-05-26T11:41:12.609Z,26.19
2018-05-26T11:43:05.483Z,26.29
2018-05-26T11:44:05.437Z,24.50
2018-05-26T11:45:58.324Z,26.56
2018-05-26T11:46:58.307Z,25.78
2018-05-26T11:48:51.338Z,24.30
2018-05-26T11:49:51.310Z,26.09
2018-05-26T11:51:44.319Z,26.12
2018-05-26T11:52:44.299Z,24.32
2018-05-26T11:54:37.422Z,24.43
2018-05-26T11:55:37.387Z,23.44
2018-05-26T11:57:30.453Z,24.24
2018-05-26T11:58:30.456Z,23.46
2018-05-26T12:00:23.590Z,23.74
2018-05-26T12:01:23.560Z,24.45
2018-05-26T12:03:16.594Z,23.96
2018-05-26T12:04:16.615Z,22.37
2018-05-26T12:06:09.418Z,23.95
2018-05-26T12:07:09.383Z,21.78
2018-05-26T12:09:02.503Z,22.27
2018-05-26T12:10:02.307Z,22.77
2018-05-26T12:11:55.315Z,22.28
2018-05-26T12:12:55.289Z,23.18
2018-05-26T12:14:50.263Z,22.30
2018-05-26T12:15:48.275Z,22.59
2018-05-26T12:17:41.399Z,21.39
2018-05-26T12:18:41.155Z,21.59
2018-05-26T12:20:34.005Z,22.69
2018-05-26T12:21:33.986Z,21.20
2018-05-26T12:23:27.069Z,19.62
2018-05-26T12:24:27.035Z,20.27
2018-05-26T12:26:20.000Z,22.96
2018-05-26T12:27:19.993Z,22.48
2018-05-26T12:29:13.004Z,21.94
2018-05-26T12:30:12.990Z,21.45
2018-05-26T12:32:05.974Z,21.36
2018-05-26T12:33:05.974Z,22.06
2018-05-26T12:34:58.963Z,22.58
2018-05-26T12:35:58.799Z,22.77
2018-05-26T12:37:51.811Z,23.56
2018-05-26T12:38:51.810Z,22.78
2018-05-26T12:40:44.890Z,21.29
2018-05-26T12:41:44.862Z,21.39
2018-05-26T12:43:37.916Z,21.53
2018-05-26T12:44:37.874Z,22.53
2018-05-26T12:46:31.454Z,20.70
2018-05-26T12:47:30.715Z,22.52
2018-05-26T12:49:23.751Z,22.70
2018-05-26T12:50:23.716Z,23.51
2018-05-26T12:52:16.727Z,22.24
2018-05-26T12:53:16.570Z,21.46
2018-05-26T12:55:09.579Z,22.08
2018-05-26T12:56:09.549Z,22.67
2018-05-26T12:58:02.551Z,21.90
2018-05-26T12:59:02.541Z,25.27
2018-05-26T13:01:01.031Z,24.51
2018-05-26T13:01:55.480Z,21.94
2018-05-26T13:03:48.522Z,21.96
2018-05-26T13:04:48.476Z,21.97
2018-05-26T13:06:41.507Z,22.27
2018-05-26T13:07:41.474Z,22.56
2018-05-26T13:09:34.501Z,21.19
2018-05-26T13:10:34.465Z,20.50
2018-05-26T13:12:27.480Z,21.88
2018-05-26T13:13:27.554Z,20.89
2018-05-26T13:15:20.331Z,20.49
2018-05-26T13:16:20.302Z,22.08
2018-05-26T13:18:13.318Z,21.20
2018-05-26T13:19:13.303Z,20.94
2018-05-26T13:21:06.355Z,22.30
2018-05-26T13:22:06.326Z,22.09
2018-05-26T13:23:59.550Z,23.21
2018-05-26T13:24:59.515Z,21.04
2018-05-26T13:26:52.381Z,24.32
2018-05-26T13:27:52.356Z,22.36
2018-05-26T13:29:45.470Z,23.16
2018-05-26T13:30:45.392Z,22.67
2018-05-26T13:32:38.416Z,21.49
2018-05-26T13:33:38.375Z,21.18
2018-05-26T13:35:31.227Z,21.67
2018-05-26T13:36:31.208Z,20.68
2018-05-26T13:38:24.229Z,20.97
2018-05-26T13:39:24.204Z,20.47
2018-05-26T13:41:17.282Z,21.77
2018-05-26T13:42:17.246Z,20.47
2018-05-26T13:44:10.262Z,21.56
2018-05-26T13:45:10.238Z,19.07
2018-05-26T13:47:03.505Z,21.56
2018-05-26T13:48:03.428Z,23.04
2018-05-26T13:49:56.581Z,22.14
2018-05-26T13:50:56.424Z,21.94
2018-05-26T13:52:52.992Z,22.63
2018-05-26T13:53:49.658Z,22.91
2018-05-26T13:55:43.278Z,21.53
2018-05-26T13:56:42.599Z,22.22
2018-05-26T13:58:37.555Z,21.22
2018-05-26T13:59:35.632Z,22.51
2018-05-26T14:01:28.589Z,21.45
2018-05-26T14:02:28.603Z,20.86
2018-05-26T14:04:21.631Z,22.05
2018-05-26T14:05:21.722Z,19.18
2018-05-26T14:07:14.805Z,20.97
2018-05-26T14:08:14.656Z,21.77
2018-05-26T14:10:07.639Z,20.76
2018-05-26T14:11:07.606Z,21.26
2018-05-26T14:13:01.113Z,20.17
2018-05-26T14:14:00.601Z,20.67
2018-05-26T14:15:53.557Z,20.97
2018-05-26T14:16:53.482Z,20.18
2018-05-26T14:18:46.376Z,20.98
2018-05-26T14:19:46.323Z,20.89
2018-05-26T14:21:39.337Z,20.89
2018-05-26T14:22:39.328Z,20.98
2018-05-26T14:24:32.528Z,22.06
2018-05-26T14:25:32.459Z,21.56
2018-05-26T14:27:25.446Z,21.78
2018-05-26T14:28:25.424Z,22.56
2018-05-26T14:30:18.733Z,20.97
2018-05-26T14:31:18.572Z,20.18
2018-05-26T14:33:11.640Z,19.70
2018-05-26T14:34:11.608Z,19.79
2018-05-26T14:36:05.052Z,18.31
2018-05-26T14:37:04.492Z,19.54
2018-05-26T14:38:57.323Z,22.31
2018-05-26T14:39:57.288Z,21.13
2018-05-26T14:41:50.291Z,19.37
2018-05-26T14:42:50.294Z,21.25
2018-05-26T14:44:43.147Z,19.76
2018-05-26T14:45:43.099Z,21.29
2018-05-26T14:47:35.936Z,23.70
2018-05-26T14:48:35.930Z,20.91
2018-05-26T14:50:28.803Z,19.95
2018-05-26T14:51:28.740Z,20.94
2018-05-26T14:53:21.759Z,19.87
2018-05-26T14:54:21.748Z,21.05
2018-05-26T14:56:14.780Z,19.26
2018-05-26T14:57:14.745Z,20.86
2018-05-26T14:59:09.197Z,21.35
2018-05-26T15:00:07.864Z,20.67
2018-05-26T15:02:01.043Z,21.16
2018-05-26T15:03:01.015Z,20.86
2018-05-26T15:04:53.945Z,20.76
2018-05-26T15:05:53.909Z,20.06
2018-05-26T15:07:46.941Z,21.05
2018-05-26T15:08:46.915Z,21.05
2018-05-26T15:10:39.963Z,20.45
2018-05-26T15:11:39.917Z,20.95
2018-05-26T15:13:32.808Z,20.07
2018-05-26T15:14:32.780Z,19.58
2018-05-26T15:16:25.712Z,20.48
2018-05-26T15:17:25.629Z,20.57
2018-05-26T15:19:18.608Z,19.79
2018-05-26T15:20:18.585Z,19.49
2018-05-26T15:22:11.876Z,19.89
2018-05-26T15:23:11.726Z,20.68
2018-05-26T15:25:15.690Z,19.60
2018-05-26T15:26:04.787Z,19.09
2018-05-26T15:27:57.754Z,19.89
2018-05-26T15:28:57.742Z,20.87
2018-05-26T15:30:50.779Z,19.40
2018-05-26T15:31:50.743Z,18.40
2018-05-26T15:33:43.742Z,19.70
2018-05-26T15:34:43.734Z,19.19
2018-05-26T15:36:36.896Z,19.19
2018-05-26T15:37:36.874Z,19.28
2018-05-26T15:39:29.875Z,19.77
2018-05-26T15:40:29.854Z,20.57
2018-05-26T15:42:22.887Z,19.77
2018-05-26T15:43:22.829Z,19.77
2018-05-26T15:45:15.910Z,20.47
2018-05-26T15:46:15.865Z,18.99
2018-05-26T15:48:08.920Z,19.39
2018-05-26T15:49:08.871Z,19.87
2018-05-26T15:51:02.096Z,19.38
2018-05-26T15:52:02.021Z,20.27
2018-05-26T15:53:55.029Z,19.87
2018-05-26T15:54:55.011Z,19.59
2018-05-26T15:56:48.258Z,19.18
2018-05-26T15:57:48.171Z,17.99
2018-05-26T15:59:41.155Z,19.68
2018-05-26T16:00:41.136Z,19.58
2018-05-26T16:02:34.140Z,18.18
2018-05-26T16:03:34.121Z,19.34
2018-05-26T16:05:27.145Z,22.23
2018-05-26T16:06:26.946Z,20.75
2018-05-26T16:08:21.447Z,20.14
2018-05-26T16:09:19.771Z,21.93
2018-05-26T16:11:12.770Z,21.04
2018-05-26T16:12:12.748Z,21.25
2018-05-26T16:14:05.972Z,21.16
2018-05-26T16:15:05.858Z,20.65
2018-05-26T16:16:58.856Z,20.26
2018-05-26T16:17:58.846Z,21.05
2018-05-26T16:19:52.044Z,19.77
2018-05-26T16:20:51.978Z,19.76
2018-05-26T16:22:44.984Z,20.35
2018-05-26T16:23:44.952Z,20.65
2018-05-26T16:25:37.971Z,21.55
2018-05-26T16:26:37.922Z,19.67
2018-05-26T16:28:30.888Z,20.76
2018-05-26T16:29:30.913Z,20.94
2018-05-26T16:31:23.850Z,21.44
2018-05-26T16:32:23.817Z,21.23
2018-05-26T16:34:16.834Z,20.73
2018-05-26T16:35:16.797Z,21.62
2018-05-26T16:37:09.732Z,21.42
2018-05-26T16:38:09.699Z,22.38
2018-05-26T16:40:02.737Z,22.58
2018-05-26T16:41:02.691Z,22.48
2018-05-26T16:42:56.577Z,22.67
2018-05-26T16:43:56.541Z,21.48
2018-05-26T16:45:49.395Z,23.16
2018-05-26T16:46:49.374Z,23.66
2018-05-26T16:48:42.413Z,23.27
2018-05-26T16:49:42.364Z,23.76
2018-05-26T16:51:35.372Z,23.76
2018-05-26T16:52:35.351Z,22.66
2018-05-26T16:54:28.593Z,23.94
2018-05-26T16:55:28.463Z,23.35
2018-05-26T16:57:21.474Z,23.35
2018-05-26T16:58:21.443Z,23.63
2018-05-26T17:00:14.488Z,23.72
2018-05-26T17:01:14.453Z,24.01
2018-05-26T17:03:07.468Z,24.87
2018-05-26T17:04:07.449Z,23.58
2018-05-26T17:06:00.463Z,25.24
2018-05-26T17:07:00.517Z,26.03
2018-05-26T17:08:53.714Z,26.42
2018-05-26T17:09:53.571Z,24.55
2018-05-26T17:11:46.533Z,26.80
2018-05-26T17:12:46.505Z,26.90
2018-05-26T17:14:39.534Z,26.20
2018-05-26T17:15:39.479Z,25.60
2018-05-26T17:17:32.361Z,27.84
2018-05-26T17:18:32.334Z,26.56
2018-05-26T17:20:25.335Z,26.76
2018-05-26T17:21:25.290Z,27.15
2018-05-26T17:23:18.277Z,28.82
2018-05-26T17:24:18.263Z,28.71
2018-05-26T17:26:11.193Z,28.81
2018-05-26T17:27:11.162Z,29.69
2018-05-26T17:29:04.173Z,29.08
2018-05-26T17:30:04.167Z,30.07
2018-05-26T17:31:57.242Z,29.75
2018-05-26T17:32:57.154Z,30.04
2018-05-26T17:34:50.087Z,30.52
2018-05-26T17:35:50.013Z,30.23
2018-05-26T17:37:43.021Z,30.61
2018-05-26T17:38:42.973Z,30.90
2018-05-26T17:40:37.459Z,32.75
2018-05-26T17:41:35.944Z,33.23
2018-05-26T17:43:29.179Z,33.22
2018-05-26T17:44:29.109Z,32.43
2018-05-26T17:46:23.607Z,33.69
2018-05-26T17:47:21.905Z,33.79
2018-05-26T17:49:14.940Z,32.99
2018-05-26T17:50:14.913Z,34.45
2018-05-26T17:52:07.988Z,34.84
2018-05-26T17:53:07.932Z,34.55
2018-05-26T17:55:00.766Z,34.53
2018-05-26T17:56:00.746Z,35.31
2018-05-26T17:57:54.695Z,36.00
2018-05-26T17:58:54.646Z,36.66
2018-05-26T18:00:47.495Z,34.52
2018-05-26T18:01:47.448Z,36.47
2018-05-26T18:03:40.440Z,37.25
2018-05-26T18:04:40.427Z,37.35
2018-05-26T18:06:33.421Z,37.15
2018-05-26T18:07:33.430Z,36.57
2018-05-26T18:09:26.675Z,36.55
2018-05-26T18:10:26.520Z,37.71
2018-05-26T18:12:20.971Z,37.62
2018-05-26T18:13:19.494Z,36.35
2018-05-26T18:15:13.002Z,37.71
2018-05-26T18:16:12.486Z,37.50
2018-05-26T18:18:05.532Z,38.96
2018-05-26T18:19:05.467Z,37.79
2018-05-26T18:20:58.477Z,38.38
2018-05-26T18:21:58.512Z,38.57
2018-05-26T18:23:51.308Z,39.26
2018-05-26T18:24:51.257Z,38.67
2018-05-26T18:26:44.410Z,39.82
2018-05-26T18:27:44.334Z,38.95
2018-05-26T18:29:37.347Z,39.24
2018-05-26T18:30:37.292Z,40.21
2018-05-26T18:32:30.425Z,40.19
2018-05-26T18:33:30.376Z,40.19